Time;durP1;ratioP1;P1;durP2;ratioP2;P2;SDS_P1;SDS_P2;PMS_P1;PMS_P2;Temp;Humidity;BMP_temperature;BMP_pressure;BME280_temperature;BME280_humidity;BME280_pressure;Samples;Min_cycle;Max_cycle;Signal;HPM_P1;HPM_P2
2022/04/18 00:02:06;;;;;;;17.63;8.43;;;19.90;58.50;;;;;;4973038;28;20085;-15
2022/04/18 00:04:33;;;;;;;16.77;8.05;;;19.80;58.60;;;;;;4973880;28;20187;-15
2022/04/18 00:07:00;;;;;;;19.77;7.80;;;19.90;58.60;;;;;;4976313;28;20070;-15
2022/04/18 00:09:25;;;;;;;20.17;9.40;;;19.80;58.60;;;;;;4976151;28;20046;-15
2022/04/18 00:11:51;;;;;;;19.45;9.50;;;19.90;58.60;;;;;;4974795;28;20039;-15
2022/04/18 00:14:17;;;;;;;20.35;9.10;;;19.90;58.60;;;;;;4975013;28;20809;-15
2022/04/18 00:16:42;;;;;;;19.48;9.15;;;19.90;58.30;;;;;;4975483;28;20041;-15
2022/04/18 00:19:08;;;;;;;20.20;9.68;;;19.90;58.20;;;;;;4972986;28;20054;-15
2022/04/18 00:21:34;;;;;;;20.38;9.60;;;20.00;58.10;;;;;;4973511;28;20114;-15
2022/04/18 00:23:59;;;;;;;22.70;9.73;;;20.00;58.30;;;;;;4975256;28;20055;-14
2022/04/18 00:26:25;;;;;;;28.20;10.90;;;19.90;58.50;;;;;;4976054;28;20045;-15
2022/04/18 00:28:51;;;;;;;22.80;10.45;;;19.90;58.40;;;;;;4974252;28;20046;-15
2022/04/18 00:31:16;;;;;;;32.92;11.05;;;20.00;58.40;;;;;;4974342;28;20550;-16
2022/04/18 00:33:42;;;;;;;26.73;11.18;;;19.90;58.30;;;;;;4973682;28;20046;-15
2022/04/18 00:36:07;;;;;;;25.02;9.93;;;19.90;58.30;;;;;;4975990;28;20045;-15
2022/04/18 00:38:33;;;;;;;23.90;10.95;;;19.90;58.30;;;;;;4975288;28;20070;-16
2022/04/18 00:40:59;;;;;;;23.45;10.90;;;19.90;58.30;;;;;;4975177;28;20094;-15
2022/04/18 00:43:44;;;;;;;27.35;11.57;;;19.90;58.30;;;;;;4975262;28;20039;-15
2022/04/18 00:46:10;;;;;;;27.25;10.13;;;19.90;58.30;;;;;;4973318;28;20047;-15
2022/04/18 00:48:36;;;;;;;23.50;10.82;;;19.90;58.40;;;;;;4973964;28;20054;-15
2022/04/18 00:51:06;;;;;;;24.73;10.32;;;19.90;58.40;;;;;;4975128;28;20053;-15
2022/04/18 00:53:32;;;;;;;21.63;10.15;;;19.90;58.40;;;;;;4973508;28;20046;-15
2022/04/18 00:55:58;;;;;;;22.02;10.40;;;19.90;58.30;;;;;;4974672;28;20133;-15
2022/04/18 00:58:24;;;;;;;24.40;10.02;;;19.90;58.40;;;;;;4974522;28;20430;-15
2022/04/18 01:00:50;;;;;;;28.15;11.77;;;19.90;58.40;;;;;;4974313;28;20472;-15
2022/04/18 01:03:15;;;;;;;23.00;10.05;;;19.90;58.40;;;;;;4974677;28;20046;-15
2022/04/18 01:05:41;;;;;;;27.52;10.98;;;19.90;58.40;;;;;;4973944;28;20034;-15
2022/04/18 01:08:07;;;;;;;25.48;10.65;;;19.90;59.10;;;;;;4974043;28;20043;-15
2022/04/18 01:10:33;;;;;;;31.25;11.63;;;19.90;58.50;;;;;;4975781;28;20062;-16
2022/04/18 01:12:58;;;;;;;26.75;10.60;;;19.90;58.80;;;;;;4979400;28;20122;-14
2022/04/18 01:15:24;;;;;;;25.58;10.18;;;19.90;58.40;;;;;;4974648;28;20115;-15
2022/04/18 01:17:50;;;;;;;23.05;9.20;;;19.90;58.40;;;;;;4971803;28;20093;-15
2022/04/18 01:20:15;;;;;;;25.92;10.52;;;19.90;58.50;;;;;;4974196;28;20189;-15
2022/04/18 01:22:42;;;;;;;24.23;9.55;;;19.90;58.50;;;;;;4975124;28;20051;-15
2022/04/18 01:30:36;;;;;;;;;;;19.80;58.50;;;;;;4956690;28;20054;-15
2022/04/18 01:33:02;;;;;;;27.08;10.10;;;19.80;58.50;;;;;;4957077;28;19919;-15
2022/04/18 01:35:28;;;;;;;23.73;9.15;;;19.80;58.50;;;;;;4959607;28;20134;-15
2022/04/18 01:37:53;;;;;;;25.17;10.07;;;19.90;58.40;;;;;;4964527;28;20054;-15
2022/04/18 01:40:19;;;;;;;23.75;9.30;;;19.90;58.50;;;;;;4975474;28;20053;-15
2022/04/18 01:42:44;;;;;;;25.05;8.75;;;19.80;58.60;;;;;;4975117;28;20058;-15
2022/04/18 01:45:10;;;;;;;25.33;9.80;;;19.80;58.50;;;;;;4970976;28;20138;-15
2022/04/18 01:47:36;;;;;;;26.00;9.15;;;19.80;58.50;;;;;;4956097;28;20489;-17
2022/04/18 01:50:01;;;;;;;24.73;9.27;;;19.80;58.50;;;;;;4963426;28;20046;-15
2022/04/18 01:52:27;;;;;;;23.17;8.13;;;19.80;58.60;;;;;;4975469;28;20093;-15
2022/04/18 01:54:53;;;;;;;24.80;8.45;;;19.80;58.50;;;;;;4971867;28;20038;-15
2022/04/18 01:57:18;;;;;;;19.33;8.07;;;19.80;58.50;;;;;;4967739;28;20093;-15
2022/04/18 01:59:44;;;;;;;22.95;7.68;;;19.80;58.60;;;;;;4959290;28;20039;-16
2022/04/18 02:02:10;;;;;;;21.90;8.30;;;19.80;58.50;;;;;;4960136;28;20047;-15
2022/04/18 02:04:35;;;;;;;20.70;8.25;;;19.80;58.50;;;;;;4959885;28;20571;-15
2022/04/18 02:07:01;;;;;;;19.55;7.63;;;19.80;58.60;;;;;;4959065;28;20049;-15
2022/04/18 02:09:26;;;;;;;28.45;7.85;;;19.80;58.60;;;;;;4975237;28;20516;-15
2022/04/18 02:11:52;;;;;;;18.80;6.53;;;19.80;58.50;;;;;;4972799;28;20518;-15
2022/04/18 02:14:17;;;;;;;20.92;7.22;;;19.80;58.50;;;;;;4965384;28;20051;-15
2022/04/18 02:16:43;;;;;;;16.85;6.75;;;19.80;58.40;;;;;;4978230;28;20114;-15
2022/04/18 02:19:09;;;;;;;18.42;6.53;;;19.80;58.50;;;;;;4978291;28;20077;-15
2022/04/18 02:21:34;;;;;;;18.90;6.60;;;19.80;58.50;;;;;;4978797;28;20114;-15
2022/04/18 02:24:00;;;;;;;14.88;6.07;;;19.80;58.50;;;;;;4978235;28;20042;-15
2022/04/18 02:26:25;;;;;;;21.58;7.32;;;19.80;58.60;;;;;;4977745;28;20076;-16
2022/04/18 02:28:51;;;;;;;15.02;6.20;;;19.80;58.50;;;;;;4976342;28;20582;-15
2022/04/18 02:31:17;;;;;;;18.40;6.50;;;19.80;58.50;;;;;;4964389;28;20051;-15
2022/04/18 02:33:42;;;;;;;16.27;6.20;;;19.80;58.50;;;;;;4959068;28;20058;-15
2022/04/18 02:36:08;;;;;;;15.27;6.25;;;19.80;58.50;;;;;;4959382;28;20051;-15
2022/04/18 02:38:33;;;;;;;17.98;5.82;;;19.80;58.50;;;;;;4959161;28;20062;-14
2022/04/18 02:40:59;;;;;;;16.70;5.65;;;19.80;58.40;;;;;;4958971;28;20047;-15
2022/04/18 02:43:24;;;;;;;13.80;5.75;;;19.80;58.50;;;;;;4961062;28;20050;-15
2022/04/18 02:45:50;;;;;;;13.10;5.90;;;19.80;58.50;;;;;;4972802;28;20086;-15
2022/04/18 02:48:16;;;;;;;14.63;5.10;;;19.80;58.50;;;;;;4959043;28;20049;-15
2022/04/18 02:50:41;;;;;;;12.60;4.88;;;19.80;58.50;;;;;;4958815;28;20055;-15
2022/04/18 02:53:07;;;;;;;13.65;5.15;;;19.80;58.50;;;;;;4977656;28;20043;-15
2022/04/18 02:55:33;;;;;;;12.40;4.63;;;19.80;58.50;;;;;;4977777;28;20042;-15
2022/04/18 02:57:58;;;;;;;13.73;4.97;;;19.80;58.40;;;;;;4975854;28;20054;-15
2022/04/18 03:00:24;;;;;;;12.80;4.20;;;19.80;58.50;;;;;;4978021;28;20098;-15
2022/04/18 03:02:49;;;;;;;14.32;4.85;;;19.80;58.50;;;;;;4972991;28;20083;-15
2022/04/18 03:05:15;;;;;;;12.00;4.60;;;19.80;58.50;;;;;;4958472;28;20051;-15
2022/04/18 03:07:41;;;;;;;14.25;4.90;;;19.80;58.50;;;;;;4957888;28;20103;-16
2022/04/18 03:10:07;;;;;;;11.25;4.35;;;19.80;58.60;;;;;;4962751;28;20051;-15
2022/04/18 03:12:33;;;;;;;10.88;4.50;;;19.80;58.50;;;;;;4976891;28;20053;-15
2022/04/18 03:14:58;;;;;;;9.32;4.00;;;19.80;58.50;;;;;;4976466;28;20047;-16
2022/04/18 03:17:24;;;;;;;11.50;3.88;;;19.80;58.40;;;;;;4976353;28;20070;-15
2022/04/18 03:19:50;;;;;;;10.75;4.80;;;19.80;58.50;;;;;;4974933;28;20114;-15
2022/04/18 03:22:15;;;;;;;10.18;4.43;;;19.80;58.40;;;;;;4977541;28;20138;-15
2022/04/18 03:24:41;;;;;;;10.93;4.57;;;19.80;58.40;;;;;;4976991;28;20582;-15
2022/04/18 03:27:07;;;;;;;11.32;4.05;;;19.80;58.50;;;;;;4976311;28;20043;-15
2022/04/18 03:29:33;;;;;;;9.65;3.67;;;19.80;58.50;;;;;;4960411;28;20062;-15
2022/04/18 03:31:59;;;;;;;9.52;3.45;;;19.80;58.50;;;;;;4957316;28;20047;-15
2022/04/18 03:34:25;;;;;;;7.45;3.67;;;19.80;58.50;;;;;;4966628;28;20141;-14
2022/04/18 03:39:50;;;;;;;8.07;3.40;;;19.80;58.50;;;;;;4977455;28;20117;-15
2022/04/18 03:42:28;;;;;;;7.90;3.30;;;19.80;58.50;;;;;;4976638;28;20093;-16
2022/04/18 03:44:54;;;;;;;6.78;3.50;;;19.80;58.50;;;;;;4957337;28;20051;-15
2022/04/18 03:47:20;;;;;;;8.75;3.70;;;19.80;58.50;;;;;;4956505;28;20070;-15
2022/04/18 03:49:45;;;;;;;9.45;3.50;;;19.80;58.50;;;;;;4958398;28;20047;-15
2022/04/18 03:52:11;;;;;;;9.05;3.70;;;19.80;58.60;;;;;;4970622;28;20066;-15
2022/04/18 03:54:39;;;;;;;7.63;3.67;;;19.80;58.60;;;;;;4963325;28;20057;-16
2022/04/18 03:57:05;;;;;;;7.93;3.22;;;19.80;58.60;;;;;;4955512;28;20039;-16
2022/04/18 03:59:31;;;;;;;7.50;3.15;;;19.70;58.60;;;;;;4957259;28;20110;-16
2022/04/18 04:01:56;;;;;;;6.78;2.80;;;19.70;58.70;;;;;;4956980;28;20043;-16
2022/04/18 04:04:22;;;;;;;6.32;2.88;;;19.70;58.60;;;;;;4960946;28;20097;-16
2022/04/18 04:06:47;;;;;;;7.60;3.38;;;19.80;58.50;;;;;;4976420;28;20038;-17
2022/04/18 04:09:13;;;;;;;6.93;3.00;;;19.80;58.50;;;;;;4969636;28;20058;-16
2022/04/18 04:11:38;;;;;;;5.80;2.83;;;19.80;58.50;;;;;;4976912;28;20125;-16
2022/04/18 04:14:04;;;;;;;5.90;2.60;;;19.70;58.60;;;;;;4973288;28;20066;-16
2022/04/18 04:16:30;;;;;;;5.88;2.63;;;19.80;58.50;;;;;;4970757;28;20094;-16
2022/04/18 04:18:56;;;;;;;6.13;3.22;;;19.80;58.50;;;;;;4957070;28;20057;-16
2022/04/18 04:21:21;;;;;;;6.32;2.60;;;19.70;58.60;;;;;;4966258;28;20042;-16
2022/04/18 04:23:47;;;;;;;5.72;2.40;;;19.70;58.60;;;;;;4975184;28;20050;-18
2022/04/18 04:26:12;;;;;;;5.45;2.65;;;19.70;58.60;;;;;;4975069;28;20457;-16
2022/04/18 04:28:38;;;;;;;4.75;2.33;;;19.70;58.70;;;;;;4976571;28;20049;-16
2022/04/18 04:31:04;;;;;;;4.28;2.08;;;19.70;58.60;;;;;;4975054;28;20047;-16
2022/04/18 04:33:32;;;;;;;5.90;2.28;;;19.70;58.50;;;;;;4969611;28;20054;-16
2022/04/18 04:35:58;;;;;;;4.95;2.30;;;19.70;58.60;;;;;;4956792;28;20035;-16
2022/04/18 04:38:25;;;;;;;3.88;2.10;;;19.70;58.60;;;;;;4957627;28;20058;-15
2022/04/18 04:40:50;;;;;;;5.30;2.13;;;19.70;58.50;;;;;;4956714;28;20050;-15
2022/04/18 04:43:16;;;;;;;2.97;2.30;;;19.70;58.60;;;;;;4961557;28;20051;-15
2022/04/18 04:45:41;;;;;;;4.03;2.10;;;19.70;58.60;;;;;;4976268;28;20050;-15
2022/04/18 04:48:07;;;;;;;5.20;2.50;;;19.70;58.60;;;;;;4959481;28;20047;-15
2022/04/18 04:50:33;;;;;;;4.25;2.28;;;19.70;58.50;;;;;;4957576;28;20074;-15
2022/04/18 04:53:00;;;;;;;4.18;2.08;;;19.70;58.50;;;;;;4975271;28;20051;-15
2022/04/18 04:55:27;;;;;;;3.88;2.20;;;19.70;58.60;;;;;;4976537;28;20047;-15
2022/04/18 04:57:53;;;;;;;3.28;2.20;;;19.70;58.50;;;;;;4975210;28;20065;-15
2022/04/18 05:00:19;;;;;;;4.10;2.28;;;19.70;58.60;;;;;;4971693;28;20039;-15
2022/04/18 05:02:45;;;;;;;5.72;2.30;;;19.70;58.60;;;;;;4966705;28;20071;-15
2022/04/18 05:05:11;;;;;;;5.47;2.40;;;19.70;58.60;;;;;;4965248;28;20043;-15
2022/04/18 05:07:36;;;;;;;3.22;1.95;;;19.70;58.60;;;;;;4970034;28;20078;-15
2022/04/18 05:10:03;;;;;;;2.42;1.58;;;19.70;58.50;;;;;;4975797;28;20427;-15
2022/04/18 05:12:31;;;;;;;2.28;1.50;;;19.70;58.60;;;;;;4960762;28;20047;-15
2022/04/18 05:15:04;;;;;;;3.80;2.00;;;19.70;58.60;;;;;;4974263;28;20488;-15
2022/04/18 05:17:30;;;;;;;5.15;2.17;;;19.60;58.80;;;;;;4971387;28;20049;-15
2022/04/18 05:19:55;;;;;;;1.83;1.50;;;19.60;59.20;;;;;;4962108;28;20034;-17
2022/04/18 05:22:21;;;;;;;2.10;1.55;;;19.70;59.30;;;;;;4961897;28;20088;-16
2022/04/18 05:24:47;;;;;;;3.83;1.60;;;19.70;59.30;;;;;;4975871;28;20042;-15
2022/04/18 05:27:15;;;;;;;4.85;1.50;;;19.70;60.00;;;;;;4973354;28;20052;-15
2022/04/18 05:29:42;;;;;;;2.50;1.65;;;19.70;60.40;;;;;;4979963;28;20163;-16
2022/04/18 05:32:08;;;;;;;2.60;1.63;;;19.70;60.50;;;;;;4979098;28;20412;-15
2022/04/18 05:34:33;;;;;;;1.85;1.38;;;19.70;60.40;;;;;;4979823;28;20047;-17
2022/04/18 05:36:59;;;;;;;3.97;2.20;;;19.60;59.90;;;;;;4978408;28;20043;-15
2022/04/18 05:39:24;;;;;;;2.67;1.40;;;19.60;60.30;;;;;;4630821;28;10000545;-15
2022/04/18 05:41:50;;;;;;;5.63;1.92;;;19.50;60.50;;;;;;4968809;28;20048;-15
2022/04/18 05:44:15;;;;;;;2.22;1.60;;;19.50;60.20;;;;;;4974310;28;20043;-15
2022/04/18 05:46:41;;;;;;;2.15;1.50;;;19.40;60.10;;;;;;4963348;28;20085;-15
2022/04/18 05:49:07;;;;;;;2.60;1.67;;;19.50;60.40;;;;;;4975587;28;20062;-15
2022/04/18 05:51:33;;;;;;;4.25;1.77;;;19.50;60.20;;;;;;4974932;28;20046;-15
2022/04/18 05:54:00;;;;;;;2.10;1.48;;;19.60;60.10;;;;;;4967711;28;20090;-15
2022/04/18 05:56:26;;;;;;;1.85;1.30;;;19.60;60.00;;;;;;4969217;28;20515;-15
2022/04/18 05:58:51;;;;;;;1.35;1.05;;;19.50;59.30;;;;;;4975014;28;20124;-15
2022/04/18 06:01:17;;;;;;;1.95;1.30;;;19.50;59.10;;;;;;4965897;28;20069;-15
2022/04/18 06:03:42;;;;;;;1.85;1.10;;;19.40;59.30;;;;;;4974303;28;20050;-16
2022/04/18 06:06:08;;;;;;;2.78;1.58;;;19.40;59.10;;;;;;4965368;28;20055;-15
2022/04/18 06:08:34;;;;;;;4.15;1.20;;;19.40;60.10;;;;;;4969924;28;20051;-15
2022/04/18 06:10:59;;;;;;;1.88;1.15;;;19.50;59.80;;;;;;4961678;28;20093;-16
2022/04/18 06:13:25;;;;;;;1.17;1.08;;;19.50;59.20;;;;;;4969636;28;20496;-15
2022/04/18 06:15:52;;;;;;;2.70;1.25;;;19.40;59.30;;;;;;4975733;28;20043;-16
2022/04/18 06:18:19;;;;;;;1.58;1.38;;;19.50;59.40;;;;;;4972224;28;20097;-15
2022/04/18 06:20:44;;;;;;;1.70;1.23;;;19.50;59.20;;;;;;4975514;28;20412;-15
2022/04/18 06:23:10;;;;;;;3.45;1.25;;;19.50;59.80;;;;;;4976799;28;20095;-15
2022/04/18 06:25:36;;;;;;;1.98;1.10;;;19.60;59.90;;;;;;4983497;28;20043;-15
2022/04/18 06:28:01;;;;;;;4.00;1.30;;;19.60;59.60;;;;;;4964724;28;20071;-16
2022/04/18 06:30:27;;;;;;;1.48;1.27;;;19.70;59.60;;;;;;4969194;28;20105;-15
2022/04/18 06:32:53;;;;;;;2.67;1.42;;;19.60;59.60;;;;;;4980848;28;20039;-15
2022/04/18 06:35:19;;;;;;;1.67;1.20;;;19.60;60.00;;;;;;4967539;28;20723;-15
2022/04/18 06:37:44;;;;;;;1.60;1.25;;;19.70;60.30;;;;;;4974348;28;20050;-15
2022/04/18 06:40:10;;;;;;;2.80;0.95;;;19.70;60.20;;;;;;4987623;28;20042;-15
2022/04/18 06:42:38;;;;;;;2.70;1.30;;;19.70;60.10;;;;;;4997774;28;20042;-15
2022/04/18 06:45:04;;;;;;;4.40;1.20;;;19.70;60.00;;;;;;4972527;28;20097;-15
2022/04/18 06:47:30;;;;;;;2.38;1.40;;;19.70;59.90;;;;;;4978567;28;20047;-15
2022/04/18 06:49:55;;;;;;;3.13;1.23;;;19.70;59.90;;;;;;4979327;28;20170;-16
2022/04/18 06:52:22;;;;;;;1.70;1.08;;;19.70;59.90;;;;;;4969299;28;20038;-15
2022/04/18 06:54:48;;;;;;;1.90;0.88;;;19.70;59.80;;;;;;4993826;28;20047;-15
2022/04/18 06:57:14;;;;;;;2.55;1.10;;;19.70;59.80;;;;;;4975877;28;20468;-15
2022/04/18 06:59:40;;;;;;;1.40;1.20;;;19.70;59.80;;;;;;4972977;28;20066;-15
2022/04/18 07:02:05;;;;;;;3.35;1.05;;;19.70;59.70;;;;;;4975615;28;20097;-15
2022/04/18 07:04:31;;;;;;;1.98;1.23;;;19.70;59.70;;;;;;4984888;28;20416;-15
2022/04/18 07:06:56;;;;;;;1.63;0.85;;;19.70;59.70;;;;;;4984374;28;20065;-16
2022/04/18 07:09:22;;;;;;;1.45;1.10;;;19.70;59.70;;;;;;4972953;28;20125;-15
2022/04/18 07:11:48;;;;;;;4.03;1.00;;;19.60;59.70;;;;;;4974077;28;20050;-16
2022/04/18 07:14:14;;;;;;;1.25;0.90;;;19.60;59.60;;;;;;4962878;28;20038;-16
2022/04/18 07:16:43;;;;;;;1.25;0.85;;;19.60;59.10;;;;;;4975694;28;20042;-15
2022/04/18 07:19:09;;;;;;;4.43;1.10;;;19.50;58.80;;;;;;4975485;28;20049;-15
2022/04/18 07:21:34;;;;;;;0.98;0.90;;;19.20;59.20;;;;;;4971282;28;20051;-15
2022/04/18 07:24:00;;;;;;;1.75;0.85;;;19.00;59.90;;;;;;4969601;28;20043;-15
2022/04/18 07:26:26;;;;;;;1.38;0.85;;;18.90;59.80;;;;;;4970181;28;20137;-15
2022/04/18 07:28:51;;;;;;;1.58;0.80;;;18.80;60.20;;;;;;4973124;28;20055;-15
2022/04/18 07:31:17;;;;;;;2.10;1.33;;;18.70;60.30;;;;;;4972933;28;20047;-14
2022/04/18 07:33:43;;;;;;;2.33;0.98;;;18.70;60.60;;;;;;4971022;28;20047;-15
2022/04/18 07:36:08;;;;;;;1.15;0.63;;;18.70;60.80;;;;;;4967129;28;20141;-15
2022/04/18 07:38:49;;;;;;;1.15;0.70;;;18.70;61.20;;;;;;4975439;28;20085;-14
2022/04/18 07:41:33;;;;;;;0.95;0.63;;;18.70;61.40;;;;;;4971892;28;20046;-15
2022/04/18 07:43:59;;;;;;;1.02;0.70;;;18.70;61.60;;;;;;4969919;28;20075;-16
2022/04/18 07:46:24;;;;;;;1.90;0.80;;;18.80;61.80;;;;;;4965737;28;20101;-15
2022/04/18 07:48:51;;;;;;;0.93;0.82;;;18.80;61.90;;;;;;4967228;28;20054;-14
2022/04/18 07:51:36;;;;;;;1.02;0.90;;;18.80;61.70;;;;;;4972689;28;20038;-15
2022/04/18 07:54:06;;;;;;;2.08;0.73;;;18.80;61.50;;;;;;4961666;28;20043;-15
2022/04/18 07:56:31;;;;;;;1.30;0.82;;;18.80;61.60;;;;;;4968573;28;20055;-15
2022/04/18 07:58:57;;;;;;;1.45;0.80;;;18.80;61.70;;;;;;4965416;28;20578;-15
2022/04/18 08:01:22;;;;;;;1.45;0.95;;;18.80;61.60;;;;;;4970238;28;20055;-15
2022/04/18 08:03:48;;;;;;;2.28;1.27;;;18.80;61.60;;;;;;4970826;28;20050;-15
2022/04/18 08:06:14;;;;;;;3.00;2.25;;;18.80;61.70;;;;;;4972796;28;20038;-15
2022/04/18 08:08:40;;;;;;;3.40;2.20;;;18.80;61.50;;;;;;4972233;28;20043;-14
2022/04/18 08:11:07;;;;;;;2.63;2.40;;;18.90;61.50;;;;;;4971282;28;20046;-15
2022/04/18 08:13:33;;;;;;;2.40;2.20;;;18.90;61.60;;;;;;4975965;28;20042;-14
2022/04/18 08:15:58;;;;;;;2.13;1.92;;;18.90;61.60;;;;;;4975219;28;20054;-15
2022/04/18 08:18:26;;;;;;;2.30;2.10;;;18.90;61.50;;;;;;4968769;28;20125;-15
2022/04/18 08:20:52;;;;;;;2.17;1.95;;;18.90;61.40;;;;;;4966483;28;20122;-15
2022/04/18 08:23:18;;;;;;;2.10;1.42;;;18.90;61.40;;;;;;4968751;28;20061;-15
2022/04/18 08:25:43;;;;;;;1.70;1.60;;;18.90;61.30;;;;;;4963448;28;20051;-15
2022/04/18 08:28:09;;;;;;;2.28;1.77;;;18.90;61.30;;;;;;4972848;28;20043;-15
2022/04/18 08:30:35;;;;;;;2.63;1.60;;;18.90;61.20;;;;;;4974210;28;20053;-14
2022/04/18 08:33:00;;;;;;;3.92;2.05;;;18.90;61.30;;;;;;4968578;28;20439;-15
2022/04/18 08:35:26;;;;;;;1.70;1.13;;;18.90;61.30;;;;;;4972669;28;20434;-15
2022/04/18 08:37:51;;;;;;;2.25;1.92;;;18.90;61.00;;;;;;4968967;28;20074;-14
2022/04/18 08:40:18;;;;;;;2.00;1.80;;;19.00;60.70;;;;;;4969077;28;20060;-14
2022/04/18 08:42:43;;;;;;;2.25;1.80;;;19.00;60.80;;;;;;4967138;28;20047;-15
2022/04/18 08:45:13;;;;;;;1.50;1.40;;;19.00;60.60;;;;;;4972889;28;20049;-15
2022/04/18 08:53:12;;;;;;;5.90;1.30;;;19.00;60.50;;;;;;4974120;28;20521;-15
2022/04/18 08:55:38;;;;;;;1.80;1.50;;;18.90;60.20;;;;;;4627411;28;9999816;-15
2022/04/18 08:58:06;;;;;;;1.45;1.13;;;18.80;59.80;;;;;;4968781;28;20047;-16
2022/04/18 09:00:32;;;;;;;1.95;1.20;;;18.70;59.40;;;;;;4964284;28;20051;-15
2022/04/18 09:02:58;;;;;;;3.65;1.35;;;18.70;59.00;;;;;;4973734;28;20053;-15
2022/04/18 09:05:23;;;;;;;1.30;0.90;;;18.60;59.00;;;;;;4967000;28;20058;-15
2022/04/18 09:07:57;;;;;;;4.72;1.58;;;18.50;59.30;;;;;;4964690;28;20134;-15
2022/04/18 09:10:23;;;;;;;2.50;1.13;;;18.40;59.30;;;;;;4972287;28;20082;-15
2022/04/18 09:12:50;;;;;;;2.45;0.88;;;18.30;59.30;;;;;;4976063;28;20129;-15
2022/04/18 09:15:35;;;;;;;2.47;0.90;;;18.30;59.20;;;;;;4964007;28;20039;-15
2022/04/18 09:18:08;;;;;;;2.90;1.42;;;18.40;59.20;;;;;;4995528;28;20066;-15
2022/04/18 09:20:54;;;;;;;2.45;1.00;;;18.30;59.20;;;;;;4971733;28;20042;-15
2022/04/18 09:23:22;;;;;;;2.85;0.98;;;18.40;59.20;;;;;;4979563;28;20585;-14
2022/04/18 09:26:09;;;;;;;4.68;1.83;;;18.40;59.00;;;;;;4973243;28;20049;-14
2022/04/18 09:28:36;;;;;;;2.25;1.70;;;18.40;58.90;;;;;;4977408;28;20129;-14
2022/04/18 09:31:09;;;;;;;3.05;1.52;;;18.50;58.50;;;;;;4977517;28;20039;-15
2022/04/18 09:33:37;;;;;;;2.10;1.30;;;18.40;58.50;;;;;;4975012;28;20050;-15
2022/04/18 09:36:18;;;;;;;2.58;1.00;;;18.50;58.30;;;;;;4976129;28;20047;-15
2022/04/18 09:38:49;;;;;;;1.55;0.60;;;18.40;58.20;;;;;;4975423;28;20047;-15
2022/04/18 09:41:16;;;;;;;0.70;0.60;;;18.30;58.10;;;;;;4974609;28;20043;-15
2022/04/18 09:43:44;;;;;;;1.55;0.75;;;18.30;58.00;;;;;;4976910;28;20050;-15
2022/04/18 09:46:09;;;;;;;1.77;1.00;;;18.40;57.30;;;;;;4975374;28;20070;-14
2022/04/18 09:48:36;;;;;;;1.58;0.90;;;18.30;57.30;;;;;;4976960;28;20093;-15
2022/04/18 09:51:13;;;;;;;2.10;1.00;;;18.40;57.50;;;;;;4976638;28;20035;-14
2022/04/18 09:53:46;;;;;;;1.63;1.00;;;18.50;57.10;;;;;;4975586;28;20305;-15
2022/04/18 09:56:16;;;;;;;2.38;1.15;;;18.60;57.30;;;;;;4975924;28;20039;-15
2022/04/18 09:58:42;;;;;;;1.90;0.82;;;18.60;57.40;;;;;;4975797;28;20050;-15
2022/04/18 10:01:07;;;;;;;3.00;0.88;;;18.60;57.50;;;;;;4972983;28;20824;-16
2022/04/18 10:03:34;;;;;;;0.80;0.60;;;18.70;57.40;;;;;;4978231;28;20039;-15
2022/04/18 10:06:01;;;;;;;1.15;0.60;;;18.80;57.30;;;;;;4975659;28;20089;-15
2022/04/18 10:08:27;;;;;;;2.25;0.60;;;18.80;57.40;;;;;;4977859;28;20101;-15
2022/04/18 10:10:53;;;;;;;1.92;1.00;;;18.70;57.20;;;;;;4975260;28;20601;-15
2022/04/18 10:13:20;;;;;;;22.83;5.05;;;18.70;57.50;;;;;;4984099;28;20156;-14
2022/04/18 10:15:46;;;;;;;16.20;5.53;;;18.70;57.30;;;;;;4960776;28;20419;-15
2022/04/18 10:18:12;;;;;;;11.02;3.13;;;18.60;56.90;;;;;;4962484;28;20054;-15
2022/04/18 10:20:50;;;;;;;7.47;2.58;;;18.60;56.20;;;;;;4967924;28;20473;-15
2022/04/18 10:23:34;;;;;;;7.13;2.20;;;18.50;56.10;;;;;;4976379;28;20053;-15
2022/04/18 10:26:22;;;;;;;5.13;1.45;;;18.50;56.00;;;;;;4976182;28;20572;-15
2022/04/18 10:28:49;;;;;;;3.97;1.10;;;18.60;56.30;;;;;;4975796;28;20051;-15
2022/04/18 10:31:23;;;;;;;5.45;1.35;;;18.60;57.90;;;;;;4971010;28;20411;-14
2022/04/18 10:33:49;;;;;;;3.03;1.23;;;18.70;57.50;;;;;;4975931;28;20054;-15
2022/04/18 10:36:25;;;;;;;3.40;1.23;;;18.90;57.50;;;;;;4976726;28;20519;-15
2022/04/18 10:38:51;;;;;;;2.67;1.42;;;18.90;57.20;;;;;;4987984;28;20035;-14
2022/04/18 10:41:39;;;;;;;3.42;1.13;;;19.00;57.00;;;;;;4957119;28;20051;-15
2022/04/18 10:44:11;;;;;;;1.92;0.93;;;19.10;57.10;;;;;;4637174;28;10000305;-14
2022/04/18 10:46:40;;;;;;;3.22;1.05;;;19.10;56.90;;;;;;4965556;28;20046;-15
2022/04/18 10:49:16;;;;;;;3.33;1.45;;;19.20;57.30;;;;;;4979443;28;20118;-15
2022/04/18 10:51:43;;;;;;;4.03;1.10;;;19.20;57.30;;;;;;4974212;28;20057;-15
2022/04/18 10:54:10;;;;;;;3.85;1.38;;;19.20;56.80;;;;;;4962183;28;20050;-15
2022/04/18 10:56:54;;;;;;;3.85;1.02;;;19.30;56.90;;;;;;4973038;28;20051;-15
2022/04/18 10:59:21;;;;;;;;;;;19.30;57.10;;;;;;4982398;28;20046;-15
2022/04/18 11:01:48;;;;;;;2.50;0.93;;;19.40;57.30;;;;;;4966883;28;19922;-16
2022/04/18 11:04:14;;;;;;;1.55;0.90;;;19.40;57.10;;;;;;4966458;28;20058;-15
2022/04/18 11:06:40;;;;;;;3.45;0.85;;;19.50;57.20;;;;;;4965132;28;20046;-15
2022/04/18 11:09:16;;;;;;;1.60;0.70;;;19.50;56.80;;;;;;4970152;28;20138;-15
2022/04/18 11:11:44;;;;;;;1.83;0.95;;;19.50;56.40;;;;;;4967545;28;20046;-15
2022/04/18 11:14:47;;;;;;;1.30;1.08;;;19.60;56.50;;;;;;4969577;28;20122;-15
2022/04/18 11:17:13;;;;;;;3.03;0.90;;;19.60;56.30;;;;;;4961344;28;20100;-15
2022/04/18 11:19:42;;;;;;;1.92;0.93;;;19.60;56.00;;;;;;4965514;28;20051;-15
2022/04/18 11:22:10;;;;;;;2.15;0.77;;;19.70;55.90;;;;;;4996436;28;20066;-14
2022/04/18 11:24:39;;;;;;;2.22;0.95;;;19.70;56.20;;;;;;4970192;28;20424;-15
2022/04/18 11:27:16;;;;;;;1.08;0.70;;;19.70;55.90;;;;;;4966596;28;20049;-15
2022/04/18 11:29:50;;;;;;;1.52;0.90;;;19.70;56.20;;;;;;4964831;28;20054;-15
2022/04/18 11:32:16;;;;;;;1.70;0.70;;;19.60;56.20;;;;;;4966458;28;20046;-15
2022/04/18 11:34:47;;;;;;;1.48;0.80;;;19.70;56.40;;;;;;4964348;28;20117;-15
2022/04/18 11:37:24;;;;;;;3.67;0.90;;;19.70;56.60;;;;;;4967156;28;20061;-17
2022/04/18 11:40:00;;;;;;;2.25;0.70;;;19.70;56.70;;;;;;4966720;28;20050;-15
2022/04/18 11:42:30;;;;;;;1.25;0.52;;;19.70;56.50;;;;;;4984424;28;20081;-15
2022/04/18 11:45:00;;;;;;;1.05;0.50;;;19.70;56.40;;;;;;4973101;28;20058;-15
2022/04/18 11:47:54;;;;;;;2.08;0.57;;;19.70;56.00;;;;;;4969391;28;20049;-15
2022/04/18 11:50:22;;;;;;;1.50;0.50;;;19.80;56.20;;;;;;4965604;28;20046;-15
2022/04/18 11:52:48;;;;;;;1.50;0.70;;;19.80;55.70;;;;;;4970671;28;20070;-15
2022/04/18 11:55:15;;;;;;;1.00;0.50;;;19.80;55.80;;;;;;4971845;28;20085;-15
2022/04/18 11:57:42;;;;;;;3.25;0.88;;;19.80;55.50;;;;;;4965626;28;20069;-15
2022/04/18 12:00:10;;;;;;;1.83;0.65;;;19.90;55.90;;;;;;4973872;28;20043;-15
2022/04/18 12:08:09;;;;;;;1.33;0.63;;;20.00;56.30;;;;;;4993328;28;20084;-15
2022/04/18 12:10:35;;;;;;;0.90;0.52;;;19.90;56.40;;;;;;4976587;28;20054;-15
2022/04/18 12:13:05;;;;;;;0.80;0.65;;;19.90;56.50;;;;;;4979344;28;20526;-19
2022/04/18 12:15:30;;;;;;;2.22;0.70;;;19.90;56.60;;;;;;4976033;28;20178;-15
2022/04/18 12:17:57;;;;;;;0.80;0.60;;;20.00;56.60;;;;;;4976894;28;20301;-15
2022/04/18 12:20:29;;;;;;;1.92;1.02;;;20.00;56.60;;;;;;4976494;28;20134;-15
2022/04/18 12:22:58;;;;;;;1.20;0.60;;;20.00;56.60;;;;;;4968162;28;20137;-15
2022/04/18 12:25:28;;;;;;;1.75;0.60;;;20.10;56.70;;;;;;4957056;28;20047;-16
2022/04/18 12:27:54;;;;;;;0.90;0.52;;;20.00;56.60;;;;;;4955737;28;20109;-16
2022/04/18 12:30:20;;;;;;;1.00;0.70;;;20.10;56.80;;;;;;4958360;28;20039;-15
2022/04/18 12:32:47;;;;;;;0.77;0.50;;;20.10;56.70;;;;;;4976793;28;20038;-15
2022/04/18 12:35:32;;;;;;;0.85;0.57;;;20.10;56.70;;;;;;4977102;28;20042;-14
2022/04/18 12:38:01;;;;;;;2.28;0.70;;;20.10;56.70;;;;;;4975682;28;20046;-15
2022/04/18 12:40:39;;;;;;;1.20;0.60;;;20.10;56.90;;;;;;4981920;28;20045;-15
2022/04/18 12:43:10;;;;;;;1.55;0.52;;;20.10;56.90;;;;;;4993606;28;20050;-16
2022/04/18 12:45:51;;;;;;;1.15;0.50;;;20.00;57.00;;;;;;4956691;28;20082;-15
2022/04/18 12:48:23;;;;;;;1.20;0.63;;;20.00;57.10;;;;;;4983804;28;20475;-17
2022/04/18 12:50:50;;;;;;;0.90;0.60;;;20.00;57.20;;;;;;4995672;28;20038;-15
2022/04/18 12:53:15;;;;;;;1.23;0.57;;;20.00;57.30;;;;;;4985999;28;20046;-15
2022/04/18 12:55:41;;;;;;;1.35;0.70;;;20.00;57.30;;;;;;4980583;28;20039;-15
2022/04/18 12:58:25;;;;;;;1.52;0.65;;;20.00;57.20;;;;;;4975023;28;20420;-16
2022/04/18 13:00:50;;;;;;;0.70;0.43;;;20.10;57.30;;;;;;4975921;28;20051;-16
2022/04/18 13:03:17;;;;;;;1.70;0.50;;;20.10;57.30;;;;;;4991356;28;20061;-16
2022/04/18 13:05:47;;;;;;;1.65;0.55;;;20.10;57.30;;;;;;4984964;28;20046;-16